Time;durP1;ratioP1;P1;durP2;ratioP2;P2;SDS_P1;SDS_P2;PMS_P1;PMS_P2;Temp;Humidity;BMP_temperature;BMP_pressure;BME280_temperature;BME280_humidity;BME280_pressure;Samples;Min_cycle;Max_cycle;Signal;HPM_P1;HPM_P2
2022/12/22 03:28:05;;;;;;;28.63;17.43;;;;;;;6.84;100.00;100411.22;4962458;28;20228;-72
2022/12/22 03:30:31;;;;;;;31.80;18.80;;;;;;;6.86;100.00;100412.13;4958174;28;20224;-71
2022/12/22 03:32:56;;;;;;;31.00;18.47;;;;;;;6.86;100.00;100406.19;4959404;28;20200;-72
2022/12/22 03:35:22;;;;;;;30.87;18.07;;;;;;;6.86;100.00;100398.56;4965944;28;20192;-72
2022/12/22 03:37:47;;;;;;;31.67;18.27;;;;;;;6.86;100.00;100393.47;4959598;28;20247;-72
2022/12/22 03:40:13;;;;;;;33.53;17.87;;;;;;;6.87;100.00;100390.09;4967424;28;20200;-72
2022/12/22 03:48:06;;;;;;;29.17;17.97;;;;;;;6.87;100.00;100390.09;4962563;28;20729;-72
2022/12/22 03:50:32;;;;;;;26.93;17.07;;;;;;;6.89;100.00;100396.94;4966769;28;20213;-72
2022/12/22 03:52:57;;;;;;;31.20;17.57;;;;;;;6.89;100.00;100389.31;4967315;28;20200;-71
2022/12/22 03:55:23;;;;;;;30.90;16.83;;;;;;;6.89;100.00;100383.34;4969318;28;20288;-72
2022/12/22 03:57:48;;;;;;;27.57;17.27;;;;;;;6.89;100.00;100383.34;4964554;28;20219;-74
2022/12/22 04:00:14;;;;;;;28.00;17.07;;;;;;;6.89;100.00;100375.72;4961102;28;20196;-73
2022/12/22 04:02:40;;;;;;;28.93;17.43;;;;;;;6.90;100.00;100377.44;4948236;28;20193;-72
2022/12/22 04:05:05;;;;;;;27.20;17.13;;;;;;;6.90;100.00;100374.88;4962054;28;20255;-72
2022/12/22 04:07:31;;;;;;;29.20;18.13;;;;;;;6.90;100.00;100370.66;4966628;28;20960;-72
2022/12/22 04:12:55;;;;;;;29.80;17.43;;;;;;;6.92;100.00;100369.03;4962690;28;20570;-71
2022/12/22 04:15:26;;;;;;;24.40;16.27;;;;;;;6.89;100.00;100371.50;4964833;28;20235;-72
2022/12/22 04:17:52;;;;;;;28.83;17.23;;;;;;;6.94;100.00;100374.16;4965025;28;20591;-72
2022/12/22 04:20:18;;;;;;;29.40;17.70;;;;;;;6.95;100.00;100364.00;4961482;28;20189;-72
2022/12/22 04:22:44;;;;;;;29.90;17.77;;;;;;;6.95;100.00;100358.94;4947210;28;20227;-72
2022/12/22 04:25:10;;;;;;;26.87;17.77;;;;;;;6.94;100.00;100353.78;4960299;28;20638;-73
2022/12/22 04:27:35;;;;;;;28.77;18.40;;;;;;;6.90;100.00;100350.31;4953231;28;20583;-71
2022/12/22 04:30:01;;;;;;;28.30;17.67;;;;;;;6.93;100.00;100355.50;4963868;28;20264;-73
2022/12/22 07:53:16;;;;;;;24.60;12.90;;;;;;;6.85;100.00;100239.94;4966366;28;20343;-72
2022/12/22 07:55:41;;;;;;;16.73;12.50;;;;;;;6.82;100.00;100241.53;4962530;28;20678;-73
2022/12/22 07:58:06;;;;;;;15.90;12.40;;;;;;;6.83;100.00;100241.59;4958833;28;20312;-71
2022/12/22 08:00:32;;;;;;;16.47;12.87;;;;;;;6.85;100.00;100244.13;4967989;28;20195;-72
2022/12/22 08:02:59;;;;;;;17.73;13.20;;;;;;;6.85;100.00;100252.66;4946893;28;20205;-72
2022/12/22 08:05:25;;;;;;;14.37;11.53;;;;;;;6.82;100.00;100244.94;4966068;28;20203;-72
2022/12/22 08:07:51;;;;;;;15.70;11.80;;;;;;;6.83;100.00;100246.69;4963545;28;20288;-72
2022/12/22 08:10:18;;;;;;;16.30;12.70;;;;;;;6.86;100.00;100239.09;4963621;28;20353;-73
2022/12/22 08:12:44;;;;;;;14.90;12.13;;;;;;;6.90;100.00;100248.53;4968672;28;20276;-72
2022/12/22 08:15:10;;;;;;;15.60;12.60;;;;;;;6.94;100.00;100246.91;4964075;28;20291;-72
2022/12/22 08:17:36;;;;;;;17.57;13.03;;;;;;;6.95;100.00;100246.09;4957286;28;20580;-72
2022/12/22 08:20:02;;;;;;;18.90;14.00;;;;;;;6.98;100.00;100251.25;4967518;28;20192;-72
2022/12/22 08:22:28;;;;;;;21.03;16.10;;;;;;;6.99;100.00;100240.25;4950457;28;20215;-73
2022/12/22 08:24:55;;;;;;;21.47;16.00;;;;;;;7.04;100.00;100246.34;4968127;28;20207;-72
2022/12/22 08:27:37;;;;;;;20.77;15.27;;;;;;;7.04;100.00;100238.69;4942382;28;20224;-74
2022/12/22 08:30:03;;;;;;;22.43;15.83;;;;;;;7.07;100.00;100239.63;4964339;28;20212;-72
2022/12/22 08:32:29;;;;;;;23.93;14.93;;;;;;;7.07;100.00;100241.28;4965522;28;20255;-72
2022/12/22 08:34:54;;;;;;;30.57;18.40;;;;;;;7.08;100.00;100241.34;4966031;28;20224;-72
2022/12/22 08:37:23;;;;;;;43.20;24.40;;;;;;;7.07;100.00;100242.16;4965926;28;20270;-72
2022/12/22 08:39:53;;;;;;;31.20;18.87;;;;;;;7.09;100.00;100248.13;4960845;28;20204;-71
2022/12/22 08:42:21;;;;;;;30.03;18.43;;;;;;;7.09;100.00;100248.13;4965094;28;20204;-71
2022/12/22 08:44:51;;;;;;;29.07;19.53;;;;;;;7.09;100.00;100240.50;4955191;28;20340;-71
2022/12/22 08:47:20;;;;;;;27.37;18.13;;;;;;;7.09;100.00;100243.03;4960479;28;20208;-72
2022/12/22 08:49:46;;;;;;;26.07;17.80;;;;;;;7.11;100.00;100243.97;4954308;28;20223;-74
2022/12/22 08:52:12;;;;;;;27.17;18.00;;;;;;;7.12;100.00;100242.25;4965618;28;20189;-71
2022/12/22 08:54:38;;;;;;;23.00;16.63;;;;;;;7.12;100.00;100239.72;4963799;28;20736;-71
2022/12/22 08:57:03;;;;;;;22.10;16.43;;;;;;;7.13;100.00;100239.75;4943865;28;20200;-71
2022/12/22 08:59:29;;;;;;;20.47;15.37;;;;;;;7.13;100.00;100236.31;4963034;28;20796;-74
2022/12/22 09:01:54;;;;;;;20.77;15.13;;;;;;;7.14;100.00;100231.28;4964359;28;20195;-73
2022/12/22 09:04:21;;;;;;;26.03;19.27;;;;;;;7.19;100.00;100244.13;4942364;28;20251;-73
2022/12/22 09:06:47;;;;;;;20.83;14.80;;;;;;;7.18;100.00;100243.25;4959101;28;20832;-73
2022/12/22 09:09:15;;;;;;;21.03;14.80;;;;;;;7.20;100.00;100243.31;4965569;28;20221;-73
2022/12/22 09:11:41;;;;;;;22.27;16.40;;;;;;;7.20;100.00;100250.94;4968210;28;20220;-73
2022/12/22 09:14:08;;;;;;;20.63;15.17;;;;;;;7.23;100.00;100241.69;4960674;28;20212;-73
2022/12/22 09:16:34;;;;;;;23.50;16.67;;;;;;;7.24;100.00;100245.94;4948237;28;20197;-71
2022/12/22 09:19:00;;;;;;;22.03;16.67;;;;;;;7.27;100.00;100245.19;4965136;28;20589;-74
2022/12/22 09:21:27;;;;;;;22.70;16.57;;;;;;;7.29;100.00;100243.50;4968604;28;20192;-74
2022/12/22 09:23:54;;;;;;;24.07;15.97;;;;;;;7.30;100.00;100243.56;4967244;28;20247;-73
2022/12/22 09:26:21;;;;;;;24.03;16.30;;;;;;;7.32;100.00;100238.50;4969196;28;20202;-73
2022/12/22 09:28:47;;;;;;;22.63;16.57;;;;;;;7.31;100.00;100232.53;4966516;28;20232;-73
2022/12/22 09:31:13;;;;;;;22.67;16.33;;;;;;;7.34;100.00;100239.38;4971392;28;20283;-74
2022/12/22 09:33:39;;;;;;;22.87;16.50;;;;;;;7.35;100.00;100241.97;4950300;28;20239;-72
2022/12/22 09:36:09;;;;;;;23.63;16.73;;;;;;;7.42;100.00;100241.25;4971205;28;20200;-71
2022/12/22 09:38:36;;;;;;;23.07;16.73;;;;;;;7.52;100.00;100240.66;4963761;28;20348;-73
2022/12/22 09:41:26;;;;;;;24.77;16.17;;;;;;;7.51;100.00;100236.34;4948888;28;20565;-73
2022/12/22 09:43:54;;;;;;;24.30;16.37;;;;;;;7.49;100.00;100235.47;4968955;28;20244;-73
2022/12/22 09:46:25;;;;;;;24.33;17.33;;;;;;;7.48;100.00;100230.34;4967587;28;20331;-73
2022/12/22 09:48:52;;;;;;;24.93;17.20;;;;;;;7.49;100.00;100234.59;4966554;28;20319;-73
2022/12/22 09:51:18;;;;;;;24.53;16.80;;;;;;;7.50;100.00;100233.78;4966652;28;20217;-74
2022/12/22 09:53:46;;;;;;;26.43;17.00;;;;;;;7.50;100.00;100232.09;4948606;28;20758;-73
2022/12/22 09:56:15;;;;;;;27.73;17.60;;;;;;;7.50;100.00;100232.09;4964681;28;20205;-73
2022/12/22 09:58:41;;;;;;;22.67;16.67;;;;;;;7.55;100.00;100233.06;4966587;28;20224;-72
2022/12/22 10:01:13;;;;;;;26.87;17.07;;;;;;;7.63;100.00;100244.28;4966870;28;20204;-72
2022/12/22 10:03:56;;;;;;;26.37;17.60;;;;;;;7.64;100.00;100242.59;4967256;28;20271;-73
2022/12/22 10:06:39;;;;;;;24.13;16.90;;;;;;;7.63;100.00;100251.03;4967653;28;20196;-73
2022/12/22 10:09:25;;;;;;;27.03;17.47;;;;;;;7.62;100.00;100246.78;4967721;28;20247;-73
2022/12/22 10:11:56;;;;;;;29.00;17.20;;;;;;;7.65;100.00;100247.69;4961355;28;20367;-72
2022/12/22 10:14:42;;;;;;;24.80;16.77;;;;;;;7.69;100.00;100244.41;4966428;28;20279;-72
2022/12/22 10:17:31;;;;;;;30.83;18.87;;;;;;;7.71;100.00;100237.66;4969716;28;20200;-72
2022/12/22 10:20:17;;;;;;;25.07;16.83;;;;;;;7.74;100.00;100234.31;4962996;28;20200;-72
2022/12/22 10:23:05;;;;;;;25.40;17.40;;;;;;;7.78;100.00;100236.94;4976496;28;20212;-74
2022/12/22 10:25:56;;;;;;;27.90;18.00;;;;;;;7.84;100.00;100237.06;4967990;28;20317;-71
2022/12/22 10:28:25;;;;;;;26.53;17.33;;;;;;;7.85;100.00;100232.84;4965947;28;20220;-72
2022/12/22 10:31:08;;;;;;;24.37;17.17;;;;;;;7.88;100.00;100235.44;4960358;28;20268;-72
2022/12/22 10:33:34;;;;;;;23.87;16.30;;;;;;;7.89;100.00;100232.94;4968265;28;20699;-74
2022/12/22 10:35:59;;;;;;;25.97;17.20;;;;;;;7.93;100.00;100233.84;4957976;28;20205;-74
2022/12/22 10:38:34;;;;;;;27.87;16.30;;;;;;;7.95;100.00;100237.28;4969916;28;20251;-73
2022/12/22 10:41:16;;;;;;;25.23;16.23;;;;;;;7.96;100.00;100246.63;4965511;28;20208;-73
2022/12/22 10:43:51;;;;;;;24.97;16.17;;;;;;;7.99;100.00;100250.13;4967592;28;21041;-73
2022/12/22 10:46:19;;;;;;;25.00;15.93;;;;;;;8.02;100.00;100252.72;4970095;28;20192;-73
2022/12/22 10:48:44;;;;;;;21.17;14.30;;;;;;;8.03;100.00;100256.16;4966777;28;20273;-73
2022/12/22 10:51:13;;;;;;;21.93;14.17;;;;;;;8.03;100.00;100246.81;4960685;28;20225;-73
2022/12/22 10:53:53;;;;;;;20.00;13.70;;;;;;;8.05;100.00;100249.38;4964422;28;20637;-73
2022/12/22 10:56:30;;;;;;;21.40;13.57;;;;;;;8.02;100.00;100247.63;4967380;28;20851;-75
2022/12/22 10:59:12;;;;;;;20.20;13.33;;;;;;;7.97;100.00;100259.41;4963881;28;20216;-72
2022/12/22 11:01:38;;;;;;;20.03;12.67;;;;;;;7.93;100.00;100259.34;4963412;28;20780;-72
2022/12/22 11:04:22;;;;;;;20.83;13.47;;;;;;;7.93;100.00;100255.09;4966576;28;20276;-72
2022/12/22 11:06:48;;;;;;;23.37;14.93;;;;;;;7.94;100.00;100256.81;4969557;28;20195;-72
2022/12/22 11:09:14;;;;;;;30.20;18.17;;;;;;;8.00;100.00;100250.97;4950171;28;20278;-72
2022/12/22 11:11:59;;;;;;;40.13;23.17;;;;;;;8.08;100.00;100250.31;4964760;28;20228;-74
2022/12/22 11:14:27;;;;;;;42.20;22.37;;;;;;;8.10;100.00;100261.38;4961955;28;20200;-74
2022/12/22 11:17:11;;;;;;;45.73;24.03;;;;;;;8.10;100.00;100258.84;4968928;28;20685;-73
2022/12/22 11:19:48;;;;;;;44.63;23.30;;;;;;;8.11;100.00;100252.06;4961118;28;20224;-74
2022/12/22 11:22:33;;;;;;;45.30;24.67;;;;;;;8.10;100.00;100251.19;4940775;28;20205;-73
2022/12/22 11:25:14;;;;;;;44.43;23.73;;;;;;;8.08;100.00;100252.00;4944281;28;20539;-72
2022/12/22 11:28:07;;;;;;;46.73;25.53;;;;;;;8.08;100.00;100252.88;4969187;28;20258;-73
2022/12/22 11:30:39;;;;;;;44.77;25.33;;;;;;;8.10;100.00;100257.97;4967944;28;20279;-73
2022/12/22 11:33:31;;;;;;;48.73;26.47;;;;;;;8.17;100.00;100257.28;4970297;28;20736;-73
2022/12/22 11:36:03;;;;;;;45.97;24.63;;;;;;;8.35;100.00;100255.09;4966960;28;20242;-73
2022/12/22 11:38:54;;;;;;;44.43;24.50;;;;;;;8.41;100.00;100263.72;4958333;28;20220;-72
2022/12/22 11:41:47;;;;;;;44.47;24.63;;;;;;;8.38;100.00;100260.28;4960113;28;20204;-71
2022/12/22 11:44:50;;;;;;;40.20;23.67;;;;;;;8.40;100.00;100263.69;4954331;28;20264;-70
2022/12/22 11:47:37;;;;;;;39.93;23.53;;;;;;;8.44;100.00;100257.81;4969033;28;20654;-72
2022/12/22 11:50:17;;;;;;;40.07;23.60;;;;;;;8.43;100.00;100262.06;4965288;28;20196;-74
2022/12/22 11:52:43;;;;;;;40.20;23.30;;;;;;;8.43;100.00;100266.31;4967179;28;20614;-71
2022/12/22 11:55:30;;;;;;;39.03;23.43;;;;;;;8.41;100.00;100270.50;4961127;28;20205;-71
2022/12/22 11:58:21;;;;;;;39.07;22.40;;;;;;;8.38;100.00;100273.88;4961739;28;20222;-72
2022/12/22 12:01:25;;;;;;;36.07;20.33;;;;;;;8.28;100.00;100283.84;4931490;28;20232;-71
2022/12/22 12:04:09;;;;;;;31.93;19.43;;;;;;;8.30;100.00;100287.31;4959086;28;20525;-72
2022/12/22 12:06:55;;;;;;;28.40;16.90;;;;;;;8.26;100.00;100288.97;4961903;28;20291;-73
2022/12/22 12:09:47;;;;;;;29.00;18.37;;;;;;;8.30;100.00;100280.50;4967342;28;20208;-72
2022/12/22 12:12:37;;;;;;;30.70;18.03;;;;;;;8.48;100.00;100277.47;4960524;28;20894;-73
2022/12/22 12:15:23;;;;;;;35.90;19.50;;;;;;;9.01;100.00;100271.56;4956449;28;20217;-71
2022/12/22 12:18:07;;;;;;;30.07;17.93;;;;;;;9.45;100.00;100268.00;4966143;28;20232;-73
2022/12/22 12:20:43;;;;;;;26.43;16.90;;;;;;;10.54;100.00;100266.84;4963906;28;20200;-73
2022/12/22 12:23:17;;;;;;;20.67;15.40;;;;;;;11.40;98.68;100259.88;4937991;28;20199;-73
2022/12/22 12:26:00;;;;;;;19.37;14.60;;;;;;;11.28;93.40;100267.47;4964036;28;20200;-74
2022/12/22 12:29:03;;;;;;;21.17;15.10;;;;;;;10.44;96.37;100271.84;4963707;28;20231;-72
2022/12/22 12:31:34;;;;;;;19.80;13.63;;;;;;;10.40;95.84;100281.19;4962626;28;20584;-72
2022/12/22 12:34:02;;;;;;;19.33;14.00;;;;;;;10.26;95.89;100290.44;4961568;28;20205;-71
2022/12/22 12:36:43;;;;;;;16.97;12.50;;;;;;;10.84;94.11;100285.06;4961994;28;20208;-72
2022/12/22 12:39:18;;;;;;;17.27;12.50;;;;;;;10.43;93.46;100285.50;4961827;28;20748;-72
2022/12/22 12:42:05;;;;;;;17.97;12.17;;;;;;;9.90;95.44;100302.72;4961973;28;20277;-72
2022/12/22 12:44:33;;;;;;;15.40;10.97;;;;;;;9.98;96.04;100292.59;4965296;28;20192;-71
2022/12/22 12:47:04;;;;;;;15.77;11.80;;;;;;;9.84;96.04;100301.78;4963071;28;20251;-70
2022/12/22 12:49:32;;;;;;;17.97;12.53;;;;;;;9.57;97.67;100302.25;4967136;28;20231;-71
2022/12/22 12:52:00;;;;;;;16.40;12.83;;;;;;;9.77;97.56;100300.84;4950745;28;20779;-71
2022/12/22 12:54:25;;;;;;;19.27;12.47;;;;;;;10.03;96.67;100309.72;4944546;28;20208;-71
2022/12/22 12:56:58;;;;;;;18.40;13.00;;;;;;;10.23;95.79;100317.69;4929962;28;20199;-71
2022/12/22 12:59:39;;;;;;;17.93;12.53;;;;;;;10.14;95.93;100309.91;4963043;28;20315;-71
2022/12/22 13:02:27;;;;;;;20.73;13.47;;;;;;;10.04;95.75;100308.91;4957478;28;20203;-71
2022/12/22 13:05:14;;;;;;;21.43;13.63;;;;;;;10.20;94.24;100313.38;4930937;28;20207;-71
2022/12/22 13:08:05;;;;;;;21.40;13.60;;;;;;;10.61;93.50;100317.28;4962309;28;20593;-71
2022/12/22 13:10:40;;;;;;;21.70;12.83;;;;;;;10.40;92.91;100322.16;4963472;28;20224;-71
2022/12/22 13:13:09;;;;;;;17.87;13.13;;;;;;;10.58;92.39;100332.59;4955884;28;20199;-71
2022/12/22 13:15:40;;;;;;;18.07;13.20;;;;;;;10.98;91.00;100331.28;4962183;28;20294;-71
2022/12/22 13:18:24;;;;;;;19.37;14.03;;;;;;;11.69;87.77;100337.88;4968431;28;20228;-72
2022/12/22 13:21:05;;;;;;;18.97;13.40;;;;;;;11.66;86.15;100333.59;4966696;28;20537;-70
2022/12/22 13:23:43;;;;;;;19.77;13.63;;;;;;;11.74;86.19;100333.63;4956036;28;20188;-72
2022/12/22 13:26:21;;;;;;;16.67;12.63;;;;;;;12.12;84.97;100329.59;4962459;28;20200;-72
2022/12/22 13:28:56;;;;;;;18.10;12.37;;;;;;;12.14;84.02;100331.31;4952370;28;20215;-70
2022/12/22 13:31:31;;;;;;;17.00;12.53;;;;;;;12.07;84.83;100344.94;4958502;28;20215;-72
2022/12/22 13:34:05;;;;;;;14.80;11.70;;;;;;;12.00;83.40;100342.34;4961970;28;20216;-72
2022/12/22 13:36:31;;;;;;;16.83;12.27;;;;;;;11.72;84.51;100349.03;4960376;28;20192;-72
2022/12/22 13:39:10;;;;;;;16.80;12.57;;;;;;;12.26;84.18;100341.63;4966929;28;20208;-72
2022/12/22 13:41:39;;;;;;;17.40;12.90;;;;;;;12.04;83.76;100349.22;4961467;28;20200;-72
2022/12/22 13:44:14;;;;;;;18.07;13.27;;;;;;;12.02;83.71;100350.91;4962491;28;20613;-72
2022/12/22 13:46:41;;;;;;;16.70;12.67;;;;;;;11.82;83.25;100350.81;4946185;28;20196;-72
2022/12/22 13:49:12;;;;;;;17.90;12.80;;;;;;;11.76;84.21;100349.91;4947527;28;20236;-72
2022/12/22 13:51:38;;;;;;;18.17;12.97;;;;;;;11.93;83.62;100353.44;4966517;28;20244;-71
2022/12/22 13:54:12;;;;;;;17.70;12.50;;;;;;;11.77;83.81;100343.91;4963291;28;20205;-72
2022/12/22 13:56:45;;;;;;;16.80;12.77;;;;;;;11.80;83.83;100342.22;4947045;28;20256;-73
2022/12/22 13:59:29;;;;;;;17.60;12.37;;;;;;;11.80;84.07;100343.94;4945401;28;20228;-72
2022/12/22 14:02:22;;;;;;;22.60;13.63;;;;;;;11.69;83.66;100333.63;4959414;28;20184;-73
2022/12/22 14:05:09;;;;;;;19.23;13.17;;;;;;;11.46;84.66;100341.94;4971172;28;20284;-72
2022/12/22 14:07:35;;;;;;;18.10;13.03;;;;;;;11.12;85.36;100348.53;4965280;28;20224;-73
2022/12/22 14:10:00;;;;;;;17.73;13.67;;;;;;;10.86;86.74;100355.09;4974462;28;20212;-72
2022/12/22 14:12:31;;;;;;;21.60;13.80;;;;;;;10.70;87.87;100362.59;4964370;28;20197;-72
2022/12/22 14:15:00;;;;;;;18.80;14.27;;;;;;;10.49;88.48;100370.03;4965771;28;20207;-74
2022/12/22 14:17:29;;;;;;;19.07;13.67;;;;;;;10.40;88.79;100363.09;4957922;28;20204;-74
2022/12/22 14:20:01;;;;;;;20.07;14.50;;;;;;;10.12;90.27;100366.16;4948821;28;20197;-74
2022/12/22 14:22:33;;;;;;;22.33;13.70;;;;;;;10.00;90.91;100376.16;4971428;28;20215;-74
2022/12/22 14:25:08;;;;;;;22.53;14.07;;;;;;;9.83;91.48;100371.66;4959793;28;20207;-73
2022/12/22 14:27:36;;;;;;;23.23;15.50;;;;;;;9.54;92.28;100378.03;4962516;28;20223;-74
2022/12/22 14:30:05;;;;;;;22.60;14.10;;;;;;;9.32;93.60;100381.06;4967791;28;20698;-73
2022/12/22 14:32:34;;;;;;;24.07;15.13;;;;;;;9.04;94.39;100384.84;4965328;28;20200;-75
2022/12/22 14:35:00;;;;;;;23.60;14.37;;;;;;;8.83;95.76;100384.47;4969049;28;20252;-71
2022/12/22 14:37:25;;;;;;;22.13;14.70;;;;;;;8.65;96.83;100383.22;4969551;28;20282;-73
2022/12/22 14:39:55;;;;;;;24.53;15.60;;;;;;;8.53;97.64;100393.22;4965210;28;20193;-73
2022/12/22 14:42:20;;;;;;;26.10;15.77;;;;;;;8.40;97.32;100397.22;4972044;28;20291;-74
2022/12/22 14:44:47;;;;;;;30.70;16.47;;;;;;;8.27;98.53;100392.69;4971576;28;20224;-74
2022/12/22 14:47:18;;;;;;;28.93;16.03;;;;;;;8.14;99.21;100389.78;4963940;28;20208;-73
2022/12/22 14:49:50;;;;;;;28.87;16.17;;;;;;;8.01;99.80;100396.31;4937781;28;20208;-74
2022/12/22 14:52:55;;;;;;;25.73;15.67;;;;;;;7.91;100.00;100394.41;4945701;28;20221;-74
2022/12/22 14:55:31;;;;;;;27.70;15.50;;;;;;;7.84;100.00;100405.25;4955625;28;20248;-74
2022/12/22 14:58:09;;;;;;;29.53;17.53;;;;;;;7.76;100.00;100406.78;4959972;28;20334;-74
2022/12/22 15:00:42;;;;;;;27.93;16.50;;;;;;;7.68;100.00;100412.53;4956676;28;20193;-74
2022/12/22 15:03:31;;;;;;;27.93;17.33;;;;;;;7.59;100.00;100410.63;4966582;28;20204;-74
2022/12/22 15:06:40;;;;;;;30.80;18.00;;;;;;;7.46;100.00;100411.16;4963809;28;20608;-74
2022/12/22 15:09:05;;;;;;;37.57;19.13;;;;;;;7.34;100.00;100410.88;4949736;28;20233;-74
2022/12/22 15:11:32;;;;;;;32.97;18.40;;;;;;;7.25;100.00;100414.84;4965198;28;20247;-73
2022/12/22 15:13:57;;;;;;;29.23;16.97;;;;;;;7.15;100.00;100421.41;4964222;28;20192;-73
2022/12/22 15:16:23;;;;;;;34.80;17.73;;;;;;;7.07;100.00;100425.44;4965454;28;20654;-73
2022/12/22 15:18:50;;;;;;;31.67;17.97;;;;;;;7.02;100.00;100428.66;4963907;28;20209;-73
2022/12/22 15:21:18;;;;;;;31.83;18.03;;;;;;;6.97;100.00;100423.47;4956414;28;20197;-73
2022/12/22 15:23:43;;;;;;;35.67;18.23;;;;;;;6.89;100.00;100427.47;4965997;28;20201;-73
2022/12/22 15:26:09;;;;;;;35.67;19.13;;;;;;;6.85;100.00;100442.59;4965990;28;20287;-73
2022/12/22 15:28:35;;;;;;;33.83;17.97;;;;;;;6.82;100.00;100440.00;4962502;28;20216;-73
2022/12/22 15:31:03;;;;;;;39.77;19.30;;;;;;;6.82;100.00;100445.94;4966974;28;20228;-72
2022/12/22 15:33:29;;;;;;;36.97;18.73;;;;;;;6.80;100.00;100442.50;4946839;28;20205;-72
2022/12/22 15:35:56;;;;;;;36.53;18.07;;;;;;;6.77;100.00;100451.72;4957145;28;20204;-73
2022/12/22 15:38:23;;;;;;;38.43;19.10;;;;;;;6.75;100.00;100454.22;4939089;28;21000;-73
2022/12/22 15:40:50;;;;;;;35.70;19.07;;;;;;;6.71;100.00;100454.97;4965336;28;20203;-73
2022/12/22 15:43:15;;;;;;;33.30;17.70;;;;;;;6.68;100.00;100461.66;4947355;28;20259;-73
2022/12/22 15:45:42;;;;;;;32.87;17.07;;;;;;;6.61;100.00;100468.25;4958634;28;20200;-73
2022/12/22 15:48:22;;;;;;;39.73;17.80;;;;;;;6.59;100.00;100469.00;4941192;28;20314;-73
2022/12/22 15:50:47;;;;;;;31.57;17.97;;;;;;;6.53;100.00;100471.34;4967827;28;20295;-73
2022/12/22 15:53:17;;;;;;;33.83;17.80;;;;;;;6.51;100.00;100480.63;4961790;28;20289;-73
2022/12/22 15:55:54;;;;;;;38.20;17.90;;;;;;;6.44;100.00;100479.59;4945864;28;20578;-72
2022/12/22 15:58:29;;;;;;;35.47;17.90;;;;;;;6.41;100.00;100474.41;4959622;28;20258;-73
2022/12/22 16:00:55;;;;;;;34.30;17.87;;;;;;;6.37;100.00;100477.69;4966855;28;20802;-73
2022/12/22 16:03:20;;;;;;;35.33;17.70;;;;;;;6.35;100.00;100481.00;4964656;28;20193;-73
2022/12/22 16:05:46;;;;;;;35.13;17.30;;;;;;;6.31;100.00;100479.19;4959384;28;20208;-73
2022/12/22 16:08:15;;;;;;;33.53;16.33;;;;;;;6.29;100.00;100480.81;4962958;28;20255;-72
2022/12/22 16:10:41;;;;;;;31.57;17.90;;;;;;;6.28;100.00;100484.16;4964929;28;20224;-75
2022/12/22 16:13:11;;;;;;;32.20;17.43;;;;;;;6.22;100.00;100487.38;4956420;28;20204;-74
2022/12/22 16:15:37;;;;;;;36.53;17.67;;;;;;;6.20;100.00;100481.41;4964853;28;20708;-74
2022/12/22 16:18:03;;;;;;;38.40;18.03;;;;;;;6.20;100.00;100488.16;4950381;28;20228;-74
2022/12/22 16:20:34;;;;;;;38.70;18.80;;;;;;;6.17;100.00;100485.53;4959173;28;20188;-74
2022/12/22 16:23:01;;;;;;;41.77;19.70;;;;;;;6.12;100.00;100489.63;4957389;28;20219;-73
2022/12/22 16:25:33;;;;;;;36.40;16.97;;;;;;;6.11;100.00;100492.94;4940971;28;20204;-74
2022/12/22 16:28:02;;;;;;;31.87;17.17;;;;;;;6.05;100.00;100490.22;4965141;28;20231;-73
2022/12/22 16:30:32;;;;;;;37.63;17.43;;;;;;;6.02;100.00;100492.66;4960208;28;20712;-74
2022/12/22 16:32:58;;;;;;;36.50;16.70;;;;;;;5.98;100.00;100491.72;4955562;28;20209;-74
2022/12/22 16:35:27;;;;;;;30.70;17.23;;;;;;;5.94;100.00;100484.81;4970386;28;20196;-74
2022/12/22 16:37:58;;;;;;;38.10;16.87;;;;;;;5.92;100.00;100483.91;4966707;28;20219;-73
2022/12/22 16:40:24;;;;;;;31.17;16.07;;;;;;;5.87;100.00;100485.44;4952012;28;20200;-73
2022/12/22 16:42:58;;;;;;;32.60;16.67;;;;;;;5.85;100.00;100487.03;4963959;28;20207;-73
2022/12/22 16:45:27;;;;;;;36.57;16.60;;;;;;;5.87;100.00;100493.06;4950122;28;20211;-72
2022/12/22 16:47:56;;;;;;;38.13;17.07;;;;;;;5.87;100.00;100493.06;4959104;28;20286;-73
2022/12/22 16:50:31;;;;;;;31.10;16.00;;;;;;;5.88;100.00;100487.16;4921749;28;20239;-72
2022/12/22 16:52:57;;;;;;;34.47;17.03;;;;;;;5.91;100.00;100489.81;4924611;28;20251;-72
2022/12/22 16:55:23;;;;;;;37.57;17.23;;;;;;;5.93;100.00;100483.09;4958426;28;20207;-74
2022/12/22 16:57:48;;;;;;;37.37;17.10;;;;;;;5.93;100.00;100488.16;4964152;28;20208;-72
2022/12/22 17:00:17;;;;;;;35.47;17.67;;;;;;;5.93;100.00;100484.75;4962888;28;20930;-75
2022/12/22 17:02:44;;;;;;;34.67;16.20;;;;;;;5.92;100.00;100485.56;4947062;28;20232;-71
2022/12/22 17:05:26;;;;;;;35.63;17.00;;;;;;;5.90;100.00;100480.44;4937950;28;20203;-75
2022/12/22 17:07:52;;;;;;;38.33;17.20;;;;;;;5.89;100.00;100483.78;4961428;28;20274;-74
2022/12/22 17:10:20;;;;;;;26.87;14.63;;;;;;;5.91;100.00;100481.31;4947956;28;20635;-74
2022/12/22 17:12:46;;;;;;;36.27;16.13;;;;;;;5.90;100.00;100485.50;4965186;28;20207;-74
2022/12/22 17:15:17;;;;;;;36.67;16.27;;;;;;;5.90;100.00;100485.50;4972722;28;20246;-73
2022/12/22 17:17:42;;;;;;;35.97;16.83;;;;;;;5.90;100.00;100480.44;4962895;28;20279;-73
2022/12/22 17:20:15;;;;;;;31.73;16.03;;;;;;;5.90;100.00;100480.44;4961941;28;20208;-73
2022/12/22 17:22:45;;;;;;;32.60;16.30;;;;;;;5.90;100.00;100471.97;4936701;28;20205;-73
2022/12/22 17:25:19;;;;;;;27.47;14.07;;;;;;;5.92;100.00;100476.28;4955269;28;20216;-74
2022/12/22 17:27:45;;;;;;;31.07;14.83;;;;;;;5.92;100.00;100483.91;4941519;28;20248;-73
2022/12/22 17:30:19;;;;;;;37.07;14.60;;;;;;;5.93;100.00;100479.66;4967182;28;20653;-74
2022/12/22 17:32:45;;;;;;;26.87;13.73;;;;;;;5.95;100.00;100478.91;4958851;28;20196;-73
2022/12/22 17:35:22;;;;;;;30.83;14.27;;;;;;;5.98;100.00;100480.69;4961012;28;20216;-73
2022/12/22 17:37:49;;;;;;;25.43;13.30;;;;;;;5.97;100.00;100474.75;4968669;28;20222;-73
2022/12/22 17:40:21;;;;;;;28.60;13.13;;;;;;;5.98;100.00;100473.91;4962425;28;20197;-73
2022/12/22 17:42:47;;;;;;;26.13;13.40;;;;;;;6.00;100.00;100476.53;4970854;28;20859;-73
2022/12/22 17:45:14;;;;;;;29.10;13.50;;;;;;;5.99;100.00;100475.63;4962801;28;20224;-73
2022/12/22 17:47:40;;;;;;;29.50;13.40;;;;;;;6.00;100.00;100468.91;4971470;28;20220;-73
2022/12/22 17:50:09;;;;;;;22.63;12.67;;;;;;;6.00;100.00;100459.59;4949906;28;20225;-73
2022/12/22 17:52:34;;;;;;;26.50;11.73;;;;;;;6.01;100.00;100461.31;4961836;28;20193;-73
2022/12/22 17:55:00;;;;;;;29.23;12.53;;;;;;;6.04;100.00;100458.00;4969004;28;20200;-74
2022/12/22 17:57:34;;;;;;;25.97;11.63;;;;;;;6.06;100.00;100454.72;4974930;28;20208;-73
2022/12/22 18:00:00;;;;;;;25.50;11.70;;;;;;;6.06;100.00;100456.38;4966736;28;20219;-74
2022/12/22 18:02:25;;;;;;;22.53;11.57;;;;;;;6.06;100.00;100457.25;4964721;28;20662;-74
2022/12/22 18:04:51;;;;;;;27.83;12.37;;;;;;;6.06;100.00;100444.53;4966842;28;20817;-73
2022/12/22 18:07:20;;;;;;;22.73;11.10;;;;;;;6.07;100.00;100456.41;4967654;28;20189;-73
2022/12/22 18:09:47;;;;;;;28.50;11.93;;;;;;;6.07;100.00;100453.00;4966892;28;20212;-73
2022/12/22 18:12:16;;;;;;;25.13;11.60;;;;;;;6.06;100.00;100454.72;4970500;28;20220;-74
2022/12/22 18:14:43;;;;;;;23.27;11.30;;;;;;;6.07;100.00;100451.34;4952965;28;20215;-74
2022/12/22 18:17:17;;;;;;;19.90;10.07;;;;;;;6.08;100.00;100449.69;4960954;28;20654;-74
2022/12/22 18:19:42;;;;;;;24.37;11.67;;;;;;;6.06;100.00;100442.00;4959333;28;20680;-73
2022/12/22 18:22:16;;;;;;;25.97;10.47;;;;;;;6.05;100.00;100449.56;4967388;28;20201;-74
2022/12/22 18:24:42;;;;;;;21.87;10.93;;;;;;;6.05;100.00;100458.06;4947813;28;20324;-73
2022/12/22 18:27:11;;;;;;;27.93;12.47;;;;;;;6.06;100.00;100448.75;4962123;28;21012;-73